LIMC/MXP METAR and TAF weather

Enter ICAO airport designator
Station Type Date Time Source
LIMC METAR 2023/01/30 10:50 UTC NOAA

LIMC 301050Z 28003KT 210V340 CAVOK 06/M01 Q1019 NOSIG


Station Type Date Time Source
LIMC Decoded METAR 2023/01/30 10:50 UTC NOAA

Milano / Malpensa, Italy (LIMC) 45-37N 008-44E 211M
Jan 30, 2023 - 05:50 AM EST / 2023.01.30 1050 UTC
Wind: from the W (280 degrees) at 3 MPH (3 KT) (direction variable):0
Visibility: greater than 7 mile(s):0
Temperature: 42 F (6 C)
Dew Point: 30 F (-1 C)
Relative Humidity: 60%
Pressure (altimeter): 30.09 in. Hg (1019 hPa)
ob: LIMC 301050Z 28003KT 210V340 CAVOK 06/M01 Q1019 NOSIG
cycle: 11

Station Type Date Time Source
LIMC TAF 2023/01/30 06:26 UTC NOAA

TAF LIMC 300500Z 3006/3112 VRB05KT CAVOK

Example: see airport list